Burress, Nebraska
Current Conditions -  °F | °C
As of 2:15 PM on Sunday 25 Jan 2015 (Local Time) from KJYR Reporting Station
Overcast Overcast  
Wind Chill: 35°   Ceiling: 3100
Heat Index: 43°   Visibility: 10mi
Dew Point: 32°   Wind: 17mph
Humidity: 66%   Direction: 340°NNW
Pressure: 30.02"   Gusts: 21mph
Location:  40.6549°N, 97.5966°W
Report Text: KJYR 252015Z AUTO 34015G18KT 10SM SCT026 BKN031 OVC065 06/00 A3002 RMK AO2
Loading
Personal Weather Stations






























Interactive Weather Map New forecast layout! Learn more

10-Day Weather Forecast

Advertisements
Track Severe Weather on mobile